Terminal Aerodrome Forecast
Issued by NWS

Home | Current Version | Previous Version | Text Only | Print | Product List | Glossary Off
Versions: 1 2 3 4 5 6 7 8 9 10 11 12 13 14 15 16 17 18

638
FTUS43 KMPX 310901 AAA
TAFAXN
TAF AMD
KAXN 310901Z 3109/0106 14010KT P6SM SCT060 OVC100
     FM311400 24010KT P6SM SCT050 BKN100=

USA.gov is the U.S. government's official web portal to all federal, state and local government web resources and services.